Current Date/Time:
Weather

HUBS METAR

EGHQ Newquay Cornwall Airport


EGHQ 261320Z 17014KT 6000 -DZ BKN004 09/09 Q1011

Weather

EGHC Land's End Airport


EGHC 261220Z 18019KT 0300 RADZ FG BKN000 09/09 Q1010

EGHE St. Mary's Airport


EGHE 261050Z 19022KT 1000 -RA FG SCT000 BKN002 10/10 Q1011

FLIGHT DETAILS

AirlinePilot IDFlightTimeDestinationArrival Time
Brymon AirwaysBRY01BC40107:15:00Gatwick08:55:00
Brymon AirwaysBRY05VF10919:15:00Isle of Man20:52:00
VirtualflyteBRY05VF10810:30:00East Midlands11:35:00
VirtualflyteBRY05VF10719:30:00Norwich20:45:00

DATA


Pilots: 4
Brymon Flights: 10
Skybus Flights: 21
Virtualflyte Flights: 30
Total Flights: 61
Total Hours: 263.00
Our Partners